^^
Marion, Virginia Banner
 

Adwolf, VA. Station Historical Data
[ Providing Data Since 6/07/2007 ]
Daily Summary for March 20, 2012 Units:  Both    English   Metric
« Previous Day
Next Day »
Daily Weekly Monthly Yearly Custom
  High: Low: Average:
Temperature: 85.1 °F /  29.5 °C 50.3 °F /  10.2 °C 65.2 °F /  18.4 °C
Dew Point: 59.8 °F /  15.4 °C 47.8 °F /  8.8 °C 52.5 °F /  11.4 °C
Humidity: 92% 30% 69%
Wind Speed: 10.4mph /  16.7km/h - 2.7mph /  4.3km/h
Wind Gust: 10.4mph /  16.7km/h - -
Wind- - SE
Pressure: 30.22 in /  1023.2 hPa 30.06 in /  1017.8 hPa -
Precipitation: 0.07 in /  1.8 mm    
Historical Graphs
 
 
Tabular Data for March 20, 2012
Time Temperature Dew Point Pressure Wind Wind Speed Wind Gust Humidity Rainfall Rate (Hourly)
00:00 55.2 °F /  12.9 °C 50.4 °F /  10.2 °C 30.15in /  1020.9hPa Calm     84% 0.00in /  0mm
00:01 55.2 °F /  12.9 °C 50.4 °F /  10.2 °C 30.15in /  1020.9hPa Calm     84% 0.00in /  0mm
00:06 54.7 °F /  12.6 °C 50.3 °F /  10.2 °C 30.15in /  1020.9hPa Calm     85% 0.00in /  0mm
00:11 54.1 °F /  12.3 °C 50.0 °F /  10 °C 30.15in /  1020.9hPa Calm     86% 0.00in /  0mm
00:16 53.6 °F /  12 °C 49.8 °F /  9.9 °C 30.15in /  1020.9hPa Calm     87% 0.00in /  0mm
00:21 53.2 °F /  11.8 °C 49.4 °F /  9.7 °C 30.15in /  1020.9hPa Calm     87% 0.00in /  0mm
00:26 53.1 °F /  11.7 °C 49.9 °F /  9.9 °C 30.15in /  1020.9hPa SE 1.2mph /  1.9km/h   89% 0.00in /  0mm
00:31 53.1 °F /  11.7 °C 49.9 °F /  9.9 °C 30.15in /  1020.9hPa SE 1.2mph /  1.9km/h 1.2mph /  1.9km/h 89% 0.00in /  0mm
00:36 53.2 °F /  11.8 °C 50.0 °F /  10 °C 30.15in /  1020.9hPa Calm   0.1mph /  0.2km/h 89% 0.00in /  0mm
00:41 53.2 °F /  11.8 °C 50.0 °F /  10 °C 30.15in /  1020.9hPa Calm   0.1mph /  0.2km/h 89% 0.00in /  0mm
00:46 53.0 °F /  11.7 °C 49.5 °F /  9.7 °C 30.14in /  1020.5hPa Calm     88% 0.00in /  0mm
00:51 52.6 °F /  11.4 °C 49.4 °F /  9.7 °C 30.14in /  1020.5hPa ENE 2.3mph /  3.7km/h   89% 0.00in /  0mm
00:56 52.2 °F /  11.2 °C 49.1 °F /  9.5 °C 30.14in /  1020.5hPa Calm     89% 0.00in /  0mm
01:01 51.8 °F /  11 °C 48.7 °F /  9.3 °C 30.14in /  1020.5hPa Calm     89% 0.00in /  0mm
01:06 51.4 °F /  10.8 °C 48.3 °F /  9.1 °C 30.14in /  1020.5hPa Calm     89% 0.00in /  0mm
01:11 51.3 °F /  10.7 °C 48.8 °F /  9.3 °C 30.13in /  1020.2hPa ENE 1.2mph /  1.9km/h 1.2mph /  1.9km/h 91% 0.00in /  0mm
01:16 51.5 °F /  10.8 °C 49.0 °F /  9.4 °C 30.13in /  1020.2hPa ESE 1.2mph /  1.9km/h 1.2mph /  1.9km/h 91% 0.00in /  0mm
01:21 51.7 °F /  10.9 °C 49.2 °F /  9.6 °C 30.13in /  1020.2hPa ESE 1.2mph /  1.9km/h   91% 0.00in /  0mm
01:26 51.6 °F /  10.9 °C 48.8 °F /  9.3 °C 30.13in /  1020.2hPa Calm     90% 0.00in /  0mm
01:31 51.4 °F /  10.8 °C 48.6 °F /  9.2 °C 30.13in /  1020.2hPa ESE 1.0mph /  1.6km/h 1.0mph /  1.6km/h 90% 0.00in /  0mm
01:36 51.3 °F /  10.7 °C 48.8 °F /  9.3 °C 30.13in /  1020.2hPa ESE 1.2mph /  1.9km/h 1.2mph /  1.9km/h 91% 0.00in /  0mm
01:41 51.2 °F /  10.7 °C 48.4 °F /  9.1 °C 30.13in /  1020.2hPa ESE 1.2mph /  1.9km/h 1.2mph /  1.9km/h 90% 0.00in /  0mm
01:46 51.0 °F /  10.6 °C 48.5 °F /  9.2 °C 30.14in /  1020.5hPa ESE 2.3mph /  3.7km/h 2.3mph /  3.7km/h 91% 0.00in /  0mm
01:51 51.2 °F /  10.7 °C 49.0 °F /  9.4 °C 30.13in /  1020.2hPa ESE 2.3mph /  3.7km/h 2.3mph /  3.7km/h 92% 0.00in /  0mm
01:56 51.4 °F /  10.8 °C 48.9 °F /  9.4 °C 30.13in /  1020.2hPa East 2.3mph /  3.7km/h 2.3mph /  3.7km/h 91% 0.00in /  0mm
02:01 51.6 °F /  10.9 °C 49.1 °F /  9.5 °C 30.13in /  1020.2hPa East 1.2mph /  1.9km/h 1.2mph /  1.9km/h 91% 0.00in /  0mm
02:06 51.7 °F /  10.9 °C 49.2 °F /  9.6 °C 30.13in /  1020.2hPa SE 2.3mph /  3.7km/h 2.3mph /  3.7km/h 91% 0.00in /  0mm
02:11 51.7 °F /  10.9 °C 48.9 °F /  9.4 °C 30.13in /  1020.2hPa ESE 2.3mph /  3.7km/h 2.3mph /  3.7km/h 90% 0.00in /  0mm
02:16 51.9 °F /  11.1 °C 49.1 °F /  9.5 °C 30.13in /  1020.2hPa ESE 2.3mph /  3.7km/h 2.3mph /  3.7km/h 90% 0.00in /  0mm
02:21 51.9 °F /  11.1 °C 49.1 °F /  9.5 °C 30.13in /  1020.2hPa East 4.0mph /  6.4km/h 4.0mph /  6.4km/h 90% 0.00in /  0mm
02:26 51.8 °F /  11 °C 49.0 °F /  9.4 °C 30.13in /  1020.2hPa ESE 2.3mph /  3.7km/h 2.3mph /  3.7km/h 90% 0.00in /  0mm
02:31 51.8 °F /  11 °C 49.0 °F /  9.4 °C 30.13in /  1020.2hPa ESE 2.3mph /  3.7km/h 2.3mph /  3.7km/h 90% 0.00in /  0mm
02:36 51.7 °F /  10.9 °C 48.9 °F /  9.4 °C 30.13in /  1020.2hPa ESE 2.3mph /  3.7km/h 2.3mph /  3.7km/h 90% 0.00in /  0mm
02:41 51.5 °F /  10.8 °C 48.7 °F /  9.3 °C 30.13in /  1020.2hPa ESE 1.2mph /  1.9km/h 1.2mph /  1.9km/h 90% 0.00in /  0mm
02:46 51.4 °F /  10.8 °C 48.6 °F /  9.2 °C 30.13in /  1020.2hPa SE 1.2mph /  1.9km/h 1.2mph /  1.9km/h 90% 0.00in /  0mm
02:51 51.4 °F /  10.8 °C 48.9 °F /  9.4 °C 30.13in /  1020.2hPa SE 1.2mph /  1.9km/h 1.2mph /  1.9km/h 91% 0.00in /  0mm
02:56 51.3 °F /  10.7 °C 48.8 °F /  9.3 °C 30.13in /  1020.2hPa SE 1.2mph /  1.9km/h 1.2mph /  1.9km/h 91% 0.00in /  0mm
03:01 51.2 °F /  10.7 °C 48.7 °F /  9.3 °C 30.13in /  1020.2hPa SE 1.2mph /  1.9km/h 1.2mph /  1.9km/h 91% 0.00in /  0mm
03:06 51.2 °F /  10.7 °C 48.7 °F /  9.3 °C 30.13in /  1020.2hPa SE 1.2mph /  1.9km/h 1.2mph /  1.9km/h 91% 0.00in /  0mm
03:11 51.2 °F /  10.7 °C 48.7 °F /  9.3 °C 30.13in /  1020.2hPa SE 1.2mph /  1.9km/h 1.2mph /  1.9km/h 91% 0.00in /  0mm
03:16 51.2 °F /  10.7 °C 48.7 °F /  9.3 °C 30.13in /  1020.2hPa SE 1.2mph /  1.9km/h 1.2mph /  1.9km/h 91% 0.00in /  0mm
03:21 51.2 °F /  10.7 °C 48.7 °F /  9.3 °C 30.13in /  1020.2hPa SE 1.2mph /  1.9km/h 1.2mph /  1.9km/h 91% 0.00in /  0mm
03:26 51.1 °F /  10.6 °C 48.6 °F /  9.2 °C 30.13in /  1020.2hPa SE 1.2mph /  1.9km/h 1.2mph /  1.9km/h 91% 0.00in /  0mm
03:31 51.0 °F /  10.6 °C 48.5 °F /  9.2 °C 30.13in /  1020.2hPa SE 2.3mph /  3.7km/h 2.3mph /  3.7km/h 91% 0.00in /  0mm
03:36 51.0 °F /  10.6 °C 48.5 °F /  9.2 °C 30.13in /  1020.2hPa SE 1.2mph /  1.9km/h 1.2mph /  1.9km/h 91% 0.00in /  0mm
03:41 50.8 °F /  10.4 °C 48.3 °F /  9.1 °C 30.13in /  1020.2hPa SE 1.2mph /  1.9km/h 1.2mph /  1.9km/h 91% 0.00in /  0mm
03:46 50.8 °F /  10.4 °C 48.3 °F /  9.1 °C 30.13in /  1020.2hPa SE 1.2mph /  1.9km/h 1.2mph /  1.9km/h 91% 0.00in /  0mm
03:51 50.8 °F /  10.4 °C 48.3 °F /  9.1 °C 30.13in /  1020.2hPa SE 1.2mph /  1.9km/h 1.2mph /  1.9km/h 91% 0.00in /  0mm
03:56 50.9 °F /  10.5 °C 48.4 °F /  9.1 °C 30.13in /  1020.2hPa SE 2.3mph /  3.7km/h 2.3mph /  3.7km/h 91% 0.00in /  0mm
04:01 50.9 °F /  10.5 °C 48.4 °F /  9.1 °C 30.12in /  1019.9hPa ESE 2.3mph /  3.7km/h 2.3mph /  3.7km/h 91% 0.00in /  0mm
04:06 50.8 °F /  10.4 °C 48.3 °F /  9.1 °C 30.13in /  1020.2hPa ESE 3.5mph /  5.6km/h 3.5mph /  5.6km/h 91% 0.00in /  0mm
04:11 50.8 °F /  10.4 °C 48.3 °F /  9.1 °C 30.12in /  1019.9hPa ESE 2.0mph /  3.2km/h 2.0mph /  3.2km/h 91% 0.00in /  0mm
04:16 50.8 °F /  10.4 °C 48.3 °F /  9.1 °C 30.12in /  1019.9hPa ESE 1.2mph /  1.9km/h 1.2mph /  1.9km/h 91% 0.00in /  0mm
04:21 50.8 °F /  10.4 °C 48.3 °F /  9.1 °C 30.12in /  1019.9hPa ESE 2.3mph /  3.7km/h 2.3mph /  3.7km/h 91% 0.00in /  0mm
04:26 50.8 °F /  10.4 °C 48.0 °F /  8.9 °C 30.12in /  1019.9hPa ESE 1.2mph /  1.9km/h 1.2mph /  1.9km/h 90% 0.00in /  0mm
04:31 50.8 °F /  10.4 °C 48.3 °F /  9.1 °C 30.12in /  1019.9hPa ESE 2.3mph /  3.7km/h 2.3mph /  3.7km/h 91% 0.00in /  0mm
04:36 50.8 °F /  10.4 °C 48.0 °F /  8.9 °C 30.12in /  1019.9hPa ESE 2.3mph /  3.7km/h 2.3mph /  3.7km/h 90% 0.00in /  0mm
04:41 50.8 °F /  10.4 °C 48.0 °F /  8.9 °C 30.12in /  1019.9hPa ESE 1.2mph /  1.9km/h 1.2mph /  1.9km/h 90% 0.00in /  0mm
04:46 50.8 °F /  10.4 °C 48.3 °F /  9.1 °C 30.13in /  1020.2hPa ESE 1.2mph /  1.9km/h 1.2mph /  1.9km/h 91% 0.00in /  0mm
04:51 50.7 °F /  10.4 °C 48.2 °F /  9 °C 30.13in /  1020.2hPa SE 1.2mph /  1.9km/h 1.2mph /  1.9km/h 91% 0.00in /  0mm
04:56 50.7 °F /  10.4 °C 48.2 °F /  9 °C 30.13in /  1020.2hPa Calm     91% 0.00in /  0mm
05:01 50.7 °F /  10.4 °C 48.2 °F /  9 °C 30.13in /  1020.2hPa SE 1.2mph /  1.9km/h 1.2mph /  1.9km/h 91% 0.00in /  0mm
05:06 50.7 °F /  10.4 °C 48.2 °F /  9 °C 30.13in /  1020.2hPa SE 2.0mph /  3.2km/h 2.0mph /  3.2km/h 91% 0.00in /  0mm
05:12 50.7 °F /  10.4 °C 47.9 °F /  8.8 °C 30.13in /  1020.2hPa SE 2.3mph /  3.7km/h 2.3mph /  3.7km/h 90% 0.00in /  0mm
05:18 50.7 °F /  10.4 °C 47.9 °F /  8.8 °C 30.13in /  1020.2hPa SE 1.2mph /  1.9km/h   90% 0.00in /  0mm
05:23 50.7 °F /  10.4 °C 47.9 °F /  8.8 °C 30.14in /  1020.5hPa Calm     90% 0.00in /  0mm
05:28 50.6 °F /  10.3 °C 47.8 °F /  8.8 °C 30.14in /  1020.5hPa SE 1.0mph /  1.6km/h   90% 0.00in /  0mm
05:35 50.6 °F /  10.3 °C 47.8 °F /  8.8 °C 30.14in /  1020.5hPa Calm   1.0mph /  1.6km/h 90% 0.00in /  0mm
05:40 50.6 °F /  10.3 °C 47.8 °F /  8.8 °C 30.14in /  1020.5hPa SE 1.2mph /  1.9km/h 1.2mph /  1.9km/h 90% 0.00in /  0mm
05:46 50.6 °F /  10.3 °C 48.1 °F /  8.9 °C 30.14in /  1020.5hPa SE 1.2mph /  1.9km/h   91% 0.00in /  0mm
05:51 50.6 °F /  10.3 °C 47.8 °F /  8.8 °C 30.14in /  1020.5hPa SE 1.2mph /  1.9km/h 1.2mph /  1.9km/h 90% 0.00in /  0mm
05:56 50.6 °F /  10.3 °C 48.1 °F /  8.9 °C 30.14in /  1020.5hPa ESE 2.3mph /  3.7km/h 2.3mph /  3.7km/h 91% 0.00in /  0mm
06:02 50.8 °F /  10.4 °C 48.0 °F /  8.9 °C 30.15in /  1020.9hPa ESE 2.3mph /  3.7km/h 2.3mph /  3.7km/h 90% 0.00in /  0mm
06:08 50.9 °F /  10.5 °C 48.1 °F /  8.9 °C 30.15in /  1020.9hPa ESE 3.5mph /  5.6km/h 3.5mph /  5.6km/h 90% 0.00in /  0mm
06:13 50.8 °F /  10.4 °C 48.0 °F /  8.9 °C 30.15in /  1020.9hPa ESE 1.2mph /  1.9km/h 1.2mph /  1.9km/h 90% 0.00in /  0mm
06:18 50.8 °F /  10.4 °C 48.0 °F /  8.9 °C 30.15in /  1020.9hPa ESE 2.3mph /  3.7km/h 2.3mph /  3.7km/h 90% 0.00in /  0mm
06:23 50.8 °F /  10.4 °C 48.0 °F /  8.9 °C 30.16in /  1021.2hPa ESE 2.3mph /  3.7km/h 2.3mph /  3.7km/h 90% 0.00in /  0mm
06:30 50.7 °F /  10.4 °C 48.2 °F /  9 °C 30.16in /  1021.2hPa ESE 2.3mph /  3.7km/h 2.3mph /  3.7km/h 91% 0.00in /  0mm
06:35 50.6 °F /  10.3 °C 47.8 °F /  8.8 °C 30.16in /  1021.2hPa ESE 2.0mph /  3.2km/h 2.0mph /  3.2km/h 90% 0.00in /  0mm
06:40 50.6 °F /  10.3 °C 48.1 °F /  8.9 °C 30.16in /  1021.2hPa ESE 2.3mph /  3.7km/h 2.3mph /  3.7km/h 91% 0.00in /  0mm
06:46 50.4 °F /  10.2 °C 47.9 °F /  8.8 °C 30.16in /  1021.2hPa ESE 1.2mph /  1.9km/h 1.2mph /  1.9km/h 91% 0.00in /  0mm
06:52 50.4 °F /  10.2 °C 47.9 °F /  8.8 °C 30.17in /  1021.6hPa ESE 1.2mph /  1.9km/h 1.2mph /  1.9km/h 91% 0.00in /  0mm
06:57 50.4 °F /  10.2 °C 47.9 °F /  8.8 °C 30.17in /  1021.6hPa ESE 2.0mph /  3.2km/h 2.0mph /  3.2km/h 91% 0.00in /  0mm
07:02 50.4 °F /  10.2 °C 47.9 °F /  8.8 °C 30.17in /  1021.6hPa ESE 1.0mph /  1.6km/h 1.0mph /  1.6km/h 91% 0.00in /  0mm
07:08 50.3 °F /  10.2 °C 47.8 °F /  8.8 °C 30.17in /  1021.6hPa ESE 1.2mph /  1.9km/h 1.2mph /  1.9km/h 91% 0.00in /  0mm
07:13 50.3 °F /  10.2 °C 48.1 °F /  8.9 °C 30.17in /  1021.6hPa ESE 1.2mph /  1.9km/h 1.2mph /  1.9km/h 92% 0.00in /  0mm
07:19 50.4 °F /  10.2 °C 48.2 °F /  9 °C 30.18in /  1021.9hPa SE 1.2mph /  1.9km/h   92% 0.00in /  0mm
07:25 50.5 °F /  10.3 °C 48.3 °F /  9.1 °C 30.18in /  1021.9hPa SE 1.0mph /  1.6km/h 1.0mph /  1.6km/h 92% 0.00in /  0mm
07:32 50.7 °F /  10.4 °C 48.2 °F /  9 °C 30.18in /  1021.9hPa SE 1.2mph /  1.9km/h 1.2mph /  1.9km/h 91% 0.00in /  0mm
07:37 50.8 °F /  10.4 °C 48.3 °F /  9.1 °C 30.18in /  1021.9hPa Calm     91% 0.00in /  0mm
07:42 50.9 °F /  10.5 °C 48.4 °F /  9.1 °C 30.18in /  1021.9hPa SE 1.2mph /  1.9km/h 1.2mph /  1.9km/h 91% 0.00in /  0mm
07:48 51.0 °F /  10.6 °C 48.5 °F /  9.2 °C 30.19in /  1022.2hPa SE 2.3mph /  3.7km/h 2.3mph /  3.7km/h 91% 0.00in /  0mm
07:54 51.3 °F /  10.7 °C 48.8 °F /  9.3 °C 30.19in /  1022.2hPa Calm     91% 0.00in /  0mm
08:00 51.5 °F /  10.8 °C 49.0 °F /  9.4 °C 30.19in /  1022.2hPa SE 1.0mph /  1.6km/h 1.0mph /  1.6km/h 91% 0.00in /  0mm
08:05 51.7 °F /  10.9 °C 49.2 °F /  9.6 °C 30.19in /  1022.2hPa SE 1.0mph /  1.6km/h 1.0mph /  1.6km/h 91% 0.00in /  0mm
08:10 52.0 °F /  11.1 °C 49.5 °F /  9.7 °C 30.19in /  1022.2hPa SE 1.2mph /  1.9km/h   91% 0.00in /  0mm
08:15 52.3 °F /  11.3 °C 49.5 °F /  9.7 °C 30.19in /  1022.2hPa SE 1.2mph /  1.9km/h   90% 0.00in /  0mm
08:20 52.6 °F /  11.4 °C 49.8 °F /  9.9 °C 30.20in /  1022.6hPa ESE 2.3mph /  3.7km/h 2.3mph /  3.7km/h 90% 0.00in /  0mm
08:26 52.9 °F /  11.6 °C 50.0 °F /  10 °C 30.20in /  1022.6hPa ESE 1.2mph /  1.9km/h 1.2mph /  1.9km/h 90% 0.00in /  0mm
08:31 53.6 °F /  12 °C 50.7 °F /  10.4 °C 30.20in /  1022.6hPa ESE 1.2mph /  1.9km/h 1.2mph /  1.9km/h 90% 0.00in /  0mm
08:39 54.2 °F /  12.3 °C 50.7 °F /  10.4 °C 30.20in /  1022.6hPa SE 1.2mph /  1.9km/h 1.2mph /  1.9km/h 88% 0.00in /  0mm
08:45 54.4 °F /  12.4 °C 50.9 °F /  10.5 °C 30.20in /  1022.6hPa Calm   1.0mph /  1.6km/h 88% 0.00in /  0mm
08:51 54.7 °F /  12.6 °C 51.2 °F /  10.7 °C 30.20in /  1022.6hPa SSE 1.2mph /  1.9km/h   88% 0.00in /  0mm
08:56 54.9 °F /  12.7 °C 51.4 °F /  10.8 °C 30.21in /  1022.9hPa SSE 1.2mph /  1.9km/h 1.2mph /  1.9km/h 88% 0.00in /  0mm
09:01 55.2 °F /  12.9 °C 51.7 °F /  10.9 °C 30.21in /  1022.9hPa SSE 1.2mph /  1.9km/h 1.2mph /  1.9km/h 88% 0.00in /  0mm
09:06 55.5 °F /  13.1 °C 51.7 °F /  10.9 °C 30.21in /  1022.9hPa SSE 1.2mph /  1.9km/h 1.2mph /  1.9km/h 87% 0.00in /  0mm
09:11 55.8 °F /  13.2 °C 51.7 °F /  10.9 °C 30.21in /  1022.9hPa SSE 2.3mph /  3.7km/h   86% 0.00in /  0mm
09:16 56.1 °F /  13.4 °C 52.0 °F /  11.1 °C 30.21in /  1022.9hPa SSE 1.2mph /  1.9km/h   86% 0.00in /  0mm
09:22 56.6 °F /  13.7 °C 52.5 °F /  11.4 °C 30.21in /  1022.9hPa SE 1.2mph /  1.9km/h 1.2mph /  1.9km/h 86% 0.00in /  0mm
09:27 57.5 °F /  14.2 °C 53.3 °F /  11.8 °C 30.21in /  1022.9hPa SE 1.2mph /  1.9km/h 1.2mph /  1.9km/h 86% 0.00in /  0mm
09:33 58.2 °F /  14.6 °C 53.7 °F /  12.1 °C 30.21in /  1022.9hPa SE 1.2mph /  1.9km/h 1.2mph /  1.9km/h 85% 0.00in /  0mm
09:40 58.8 °F /  14.9 °C 54.0 °F /  12.2 °C 30.21in /  1022.9hPa SE 1.2mph /  1.9km/h 1.2mph /  1.9km/h 84% 0.00in /  0mm
09:45 59.1 °F /  15.1 °C 54.3 °F /  12.4 °C 30.21in /  1022.9hPa Calm   1.0mph /  1.6km/h 84% 0.00in /  0mm
09:50 59.5 °F /  15.3 °C 54.3 °F /  12.4 °C 30.21in /  1022.9hPa SE 2.3mph /  3.7km/h 2.3mph /  3.7km/h 83% 0.00in /  0mm
09:55 60.0 °F /  15.6 °C 54.8 °F /  12.7 °C 30.21in /  1022.9hPa SE 2.3mph /  3.7km/h 2.3mph /  3.7km/h 83% 0.00in /  0mm
10:01 61.4 °F /  16.3 °C 55.9 °F /  13.3 °C 30.21in /  1022.9hPa ESE 1.0mph /  1.6km/h 1.0mph /  1.6km/h 82% 0.00in /  0mm
10:06 62.8 °F /  17.1 °C 56.5 °F /  13.6 °C 30.22in /  1023.2hPa NNE 2.3mph /  3.7km/h 2.3mph /  3.7km/h 80% 0.00in /  0mm
10:11 63.6 °F /  17.6 °C 57.0 °F /  13.9 °C 30.22in /  1023.2hPa NE 1.2mph /  1.9km/h 1.2mph /  1.9km/h 79% 0.00in /  0mm
10:17 64.4 °F /  18 °C 57.4 °F /  14.1 °C 30.21in /  1022.9hPa ESE 1.0mph /  1.6km/h   78% 0.00in /  0mm
10:22 65.4 °F /  18.6 °C 58.0 °F /  14.4 °C 30.21in /  1022.9hPa NNE 2.3mph /  3.7km/h 2.3mph /  3.7km/h 77% 0.00in /  0mm
10:27 66.4 °F /  19.1 °C 58.6 °F /  14.8 °C 30.21in /  1022.9hPa NNE 2.0mph /  3.2km/h 2.0mph /  3.2km/h 76% 0.00in /  0mm
10:32 67.8 °F /  19.9 °C 59.2 °F /  15.1 °C 30.21in /  1022.9hPa NNE 2.3mph /  3.7km/h 2.3mph /  3.7km/h 74% 0.00in /  0mm
10:38 68.3 °F /  20.2 °C 58.9 °F /  14.9 °C 30.21in /  1022.9hPa North 2.3mph /  3.7km/h 2.3mph /  3.7km/h 72% 0.00in /  0mm
10:43 68.8 °F /  20.4 °C 59.0 °F /  15 °C 30.21in /  1022.9hPa North 2.3mph /  3.7km/h 2.3mph /  3.7km/h 71% 0.00in /  0mm
10:48 69.4 °F /  20.8 °C 58.8 °F /  14.9 °C 30.21in /  1022.9hPa NE 2.3mph /  3.7km/h 2.3mph /  3.7km/h 69% 0.00in /  0mm
10:54 70.6 °F /  21.4 °C 59.1 °F /  15.1 °C 30.20in /  1022.6hPa East 1.2mph /  1.9km/h   67% 0.00in /  0mm
10:59 72.2 °F /  22.3 °C 59.3 °F /  15.2 °C 30.20in /  1022.6hPa NNE 1.2mph /  1.9km/h 1.2mph /  1.9km/h 64% 0.00in /  0mm
11:04 72.6 °F /  22.6 °C 56.5 °F /  13.6 °C 30.20in /  1022.6hPa NNE 1.2mph /  1.9km/h 1.2mph /  1.9km/h 57% 0.00in /  0mm
11:09 73.0 °F /  22.8 °C 56.4 °F /  13.6 °C 30.20in /  1022.6hPa North 1.2mph /  1.9km/h 1.2mph /  1.9km/h 56% 0.00in /  0mm
11:14 73.7 °F /  23.2 °C 57.0 °F /  13.9 °C 30.20in /  1022.6hPa Calm     56% 0.00in /  0mm
11:21 74.9 °F /  23.8 °C 56.6 °F /  13.7 °C 30.19in /  1022.2hPa NW 3.0mph /  4.8km/h 3.0mph /  4.8km/h 53% 0.00in /  0mm
11:26 74.8 °F /  23.8 °C 56.5 °F /  13.6 °C 30.19in /  1022.2hPa WSW 2.3mph /  3.7km/h 2.3mph /  3.7km/h 53% 0.00in /  0mm
11:32 75.3 °F /  24.1 °C 57.0 °F /  13.9 °C 30.19in /  1022.2hPa South 5.0mph /  8km/h 5.0mph /  8km/h 53% 0.00in /  0mm
11:37 75.5 °F /  24.2 °C 56.1 °F /  13.4 °C 30.19in /  1022.2hPa South 4.6mph /  7.4km/h 4.6mph /  7.4km/h 51% 0.00in /  0mm
11:43 75.7 °F /  24.3 °C 55.7 °F /  13.2 °C 30.19in /  1022.2hPa South 4.6mph /  7.4km/h 4.6mph /  7.4km/h 50% 0.00in /  0mm
11:48 76.1 °F /  24.5 °C 56.1 °F /  13.4 °C 30.19in /  1022.2hPa SE 3.0mph /  4.8km/h 3.0mph /  4.8km/h 50% 0.00in /  0mm
11:53 76.8 °F /  24.9 °C 56.8 °F /  13.8 °C 30.19in /  1022.2hPa SSE 3.5mph /  5.6km/h 3.5mph /  5.6km/h 50% 0.00in /  0mm
11:59 77.7 °F /  25.4 °C 57.0 °F /  13.9 °C 30.19in /  1022.2hPa South 1.0mph /  1.6km/h 1.0mph /  1.6km/h 49% 0.00in /  0mm
12:04 77.9 °F /  25.5 °C 56.0 °F /  13.3 °C 30.18in /  1021.9hPa South 4.6mph /  7.4km/h 4.6mph /  7.4km/h 47% 0.00in /  0mm
12:09 78.0 °F /  25.6 °C 57.9 °F /  14.4 °C 30.18in /  1021.9hPa SE 3.5mph /  5.6km/h 3.5mph /  5.6km/h 50% 0.00in /  0mm
12:14 78.6 °F /  25.9 °C 54.2 °F /  12.3 °C 30.18in /  1021.9hPa South 4.6mph /  7.4km/h 4.6mph /  7.4km/h 43% 0.00in /  0mm
12:19 78.7 °F /  25.9 °C 53.7 °F /  12.1 °C 30.18in /  1021.9hPa SE 2.3mph /  3.7km/h 2.3mph /  3.7km/h 42% 0.00in /  0mm
12:25 79.5 °F /  26.4 °C 53.1 °F /  11.7 °C 30.18in /  1021.9hPa South 4.0mph /  6.4km/h 4.0mph /  6.4km/h 40% 0.00in /  0mm
12:30 79.4 °F /  26.3 °C 53.0 °F /  11.7 °C 30.18in /  1021.9hPa North 3.5mph /  5.6km/h 3.5mph /  5.6km/h 40% 0.00in /  0mm
12:36 79.4 °F /  26.3 °C 52.3 °F /  11.3 °C 30.17in /  1021.6hPa SSE 2.3mph /  3.7km/h 2.3mph /  3.7km/h 39% 0.00in /  0mm
12:41 79.7 °F /  26.5 °C 54.6 °F /  12.6 °C 30.17in /  1021.6hPa SW 3.5mph /  5.6km/h 3.5mph /  5.6km/h 42% 0.00in /  0mm
12:46 80.5 °F /  26.9 °C 54.0 °F /  12.2 °C 30.17in /  1021.6hPa ENE 3.0mph /  4.8km/h 3.0mph /  4.8km/h 40% 0.00in /  0mm
12:51 80.0 °F /  26.7 °C 53.5 °F /  11.9 °C 30.17in /  1021.6hPa NNE 3.5mph /  5.6km/h 3.5mph /  5.6km/h 40% 0.00in /  0mm
12:56 80.6 °F /  27 °C 54.0 °F /  12.2 °C 30.17in /  1021.6hPa SE 3.5mph /  5.6km/h 3.5mph /  5.6km/h 40% 0.00in /  0mm
13:02 81.8 °F /  27.7 °C 53.7 °F /  12.1 °C 30.17in /  1021.6hPa West 2.3mph /  3.7km/h 2.3mph /  3.7km/h 38% 0.00in /  0mm
13:07 82.4 °F /  28 °C 54.2 °F /  12.3 °C 30.16in /  1021.2hPa East 2.0mph /  3.2km/h 2.0mph /  3.2km/h 38% 0.00in /  0mm
13:12 81.9 °F /  27.7 °C 52.3 °F /  11.3 °C 30.16in /  1021.2hPa NNE 3.5mph /  5.6km/h 3.5mph /  5.6km/h 36% 0.00in /  0mm
13:17 81.6 °F /  27.6 °C 52.1 °F /  11.2 °C 30.16in /  1021.2hPa ESE 1.2mph /  1.9km/h 1.2mph /  1.9km/h 36% 0.00in /  0mm
13:22 80.9 °F /  27.2 °C 51.4 °F /  10.8 °C 30.16in /  1021.2hPa NE 5.8mph /  9.3km/h 5.8mph /  9.3km/h 36% 0.00in /  0mm
13:27 80.2 °F /  26.8 °C 52.3 °F /  11.3 °C 30.16in /  1021.2hPa North 3.5mph /  5.6km/h 3.5mph /  5.6km/h 38% 0.00in /  0mm
13:32 79.8 °F /  26.6 °C 52.6 °F /  11.4 °C 30.15in /  1020.9hPa NNW 5.8mph /  9.3km/h 5.8mph /  9.3km/h 39% 0.00in /  0mm
13:37 80.0 °F /  26.7 °C 52.8 °F /  11.6 °C 30.15in /  1020.9hPa WSW 3.5mph /  5.6km/h 3.5mph /  5.6km/h 39% 0.00in /  0mm
13:42 80.4 °F /  26.9 °C 53.2 °F /  11.8 °C 30.15in /  1020.9hPa North 2.0mph /  3.2km/h 2.0mph /  3.2km/h 39% 0.00in /  0mm
13:47 80.3 °F /  26.8 °C 52.4 °F /  11.3 °C 30.15in /  1020.9hPa NNE 6.0mph /  9.7km/h 6.0mph /  9.7km/h 38% 0.00in /  0mm
13:52 79.6 °F /  26.4 °C 51.0 °F /  10.6 °C 30.14in /  1020.5hPa NW 3.5mph /  5.6km/h 3.5mph /  5.6km/h 37% 0.00in /  0mm
13:57 79.8 °F /  26.6 °C 54.0 °F /  12.2 °C 30.14in /  1020.5hPa West 3.5mph /  5.6km/h 3.5mph /  5.6km/h 41% 0.00in /  0mm
14:02 80.8 °F /  27.1 °C 52.1 °F /  11.2 °C 30.14in /  1020.5hPa NW 3.5mph /  5.6km/h 3.5mph /  5.6km/h 37% 0.00in /  0mm
14:07 80.8 °F /  27.1 °C 52.1 °F /  11.2 °C 30.14in /  1020.5hPa SSE 4.0mph /  6.4km/h 4.0mph /  6.4km/h 37% 0.00in /  0mm
14:12 81.2 °F /  27.3 °C 51.7 °F /  10.9 °C 30.13in /  1020.2hPa SSW 3.5mph /  5.6km/h 3.5mph /  5.6km/h 36% 0.00in /  0mm
14:17 81.4 °F /  27.4 °C 51.1 °F /  10.6 °C 30.13in /  1020.2hPa SSW 2.3mph /  3.7km/h 2.3mph /  3.7km/h 35% 0.00in /  0mm
14:22 81.6 °F /  27.6 °C 52.8 °F /  11.6 °C 30.12in /  1019.9hPa NW 4.6mph /  7.4km/h 4.6mph /  7.4km/h 37% 0.00in /  0mm
14:27 81.5 °F /  27.5 °C 52.0 °F /  11.1 °C 30.12in /  1019.9hPa North 3.5mph /  5.6km/h 3.5mph /  5.6km/h 36% 0.00in /  0mm
14:32 81.4 °F /  27.4 °C 52.6 °F /  11.4 °C 30.12in /  1019.9hPa NW 6.9mph /  11.1km/h 6.9mph /  11.1km/h 37% 0.00in /  0mm
14:37 81.0 °F /  27.2 °C 51.5 °F /  10.8 °C 30.11in /  1019.5hPa North 3.5mph /  5.6km/h 3.5mph /  5.6km/h 36% 0.00in /  0mm
14:42 81.0 °F /  27.2 °C 51.5 °F /  10.8 °C 30.11in /  1019.5hPa WNW 3.5mph /  5.6km/h 3.5mph /  5.6km/h 36% 0.00in /  0mm
14:47 80.8 °F /  27.1 °C 51.4 °F /  10.8 °C 30.11in /  1019.5hPa NE 3.5mph /  5.6km/h 3.5mph /  5.6km/h 36% 0.00in /  0mm
14:52 81.7 °F /  27.6 °C 52.1 °F /  11.2 °C 30.10in /  1019.2hPa SE 3.0mph /  4.8km/h 3.0mph /  4.8km/h 36% 0.00in /  0mm
14:57 82.1 °F /  27.8 °C 51.7 °F /  10.9 °C 30.10in /  1019.2hPa SSE 5.8mph /  9.3km/h 5.8mph /  9.3km/h 35% 0.00in /  0mm
15:02 81.8 °F /  27.7 °C 51.5 °F /  10.8 °C 30.10in /  1019.2hPa South 5.8mph /  9.3km/h 5.8mph /  9.3km/h 35% 0.00in /  0mm
15:07 82.0 °F /  27.8 °C 50.1 °F /  10.1 °C 30.10in /  1019.2hPa WSW 5.8mph /  9.3km/h 5.8mph /  9.3km/h 33% 0.00in /  0mm
15:12 82.2 °F /  27.9 °C 51.8 °F /  11 °C 30.10in /  1019.2hPa WNW 4.6mph /  7.4km/h 4.6mph /  7.4km/h 35% 0.00in /  0mm
15:17 81.8 °F /  27.7 °C 50.7 °F /  10.4 °C 30.09in /  1018.8hPa SSE 5.8mph /  9.3km/h 5.8mph /  9.3km/h 34% 0.00in /  0mm
15:22 82.7 °F /  28.2 °C 51.5 °F /  10.8 °C 30.09in /  1018.8hPa North 2.3mph /  3.7km/h 2.3mph /  3.7km/h 34% 0.00in /  0mm
15:27 82.7 °F /  28.2 °C 49.8 °F /  9.9 °C 30.09in /  1018.8hPa NE 3.5mph /  5.6km/h 3.5mph /  5.6km/h 32% 0.00in /  0mm
15:32 83.0 °F /  28.3 °C 50.9 °F /  10.5 °C 30.09in /  1018.8hPa NE 3.5mph /  5.6km/h 3.5mph /  5.6km/h 33% 0.00in /  0mm
15:37 82.5 °F /  28.1 °C 52.1 °F /  11.2 °C 30.09in /  1018.8hPa North 7.0mph /  11.3km/h 7.0mph /  11.3km/h 35% 0.00in /  0mm
15:42 81.7 °F /  27.6 °C 51.4 °F /  10.8 °C 30.09in /  1018.8hPa North 4.6mph /  7.4km/h 4.6mph /  7.4km/h 35% 0.00in /  0mm
15:47 81.6 °F /  27.6 °C 49.7 °F /  9.8 °C 30.08in /  1018.5hPa NE 3.5mph /  5.6km/h 3.5mph /  5.6km/h 33% 0.00in /  0mm
15:52 82.0 °F /  27.8 °C 51.6 °F /  10.9 °C 30.08in /  1018.5hPa NNE 4.0mph /  6.4km/h 4.0mph /  6.4km/h 35% 0.00in /  0mm
15:57 82.4 °F /  28 °C 48.7 °F /  9.3 °C 30.08in /  1018.5hPa NNE 1.2mph /  1.9km/h 1.2mph /  1.9km/h 31% 0.00in /  0mm
16:02 82.7 °F /  28.2 °C 49.8 °F /  9.9 °C 30.08in /  1018.5hPa NNE 5.8mph /  9.3km/h 5.8mph /  9.3km/h 32% 0.00in /  0mm
16:07 82.0 °F /  27.8 °C 50.1 °F /  10.1 °C 30.08in /  1018.5hPa NE 3.5mph /  5.6km/h 4.1mph /  6.6km/h 33% 0.00in /  0mm
16:12 81.6 °F /  27.6 °C 48.9 °F /  9.4 °C 30.08in /  1018.5hPa NNE 4.6mph /  7.4km/h 4.6mph /  7.4km/h 32% 0.00in /  0mm
16:17 82.0 °F /  27.8 °C 51.6 °F /  10.9 °C 30.08in /  1018.5hPa ESE 2.3mph /  3.7km/h 2.3mph /  3.7km/h 35% 0.00in /  0mm
16:22 83.9 °F /  28.8 °C 52.5 °F /  11.4 °C 30.08in /  1018.5hPa SE 1.2mph /  1.9km/h 1.2mph /  1.9km/h 34% 0.00in /  0mm
16:27 85.1 °F /  29.5 °C 50.2 °F /  10.1 °C 30.08in /  1018.5hPa NE 4.0mph /  6.4km/h 4.0mph /  6.4km/h 30% 0.00in /  0mm
16:32 84.9 °F /  29.4 °C 50.9 °F /  10.5 °C 30.08in /  1018.5hPa East 4.0mph /  6.4km/h 4.0mph /  6.4km/h 31% 0.00in /  0mm
16:37 84.5 °F /  29.2 °C 50.5 °F /  10.3 °C 30.08in /  1018.5hPa SSE 6.9mph /  11.1km/h 6.9mph /  11.1km/h 31% 0.00in /  0mm
16:42 84.3 °F /  29.1 °C 52.1 °F /  11.2 °C 30.08in /  1018.5hPa South 4.6mph /  7.4km/h 4.6mph /  7.4km/h 33% 0.00in /  0mm
16:47 83.0 °F /  28.3 °C 54.0 °F /  12.2 °C 30.08in /  1018.5hPa SSE 9.2mph /  14.8km/h 9.2mph /  14.8km/h 37% 0.00in /  0mm
16:52 81.7 °F /  27.6 °C 54.3 °F /  12.4 °C 30.08in /  1018.5hPa South 8.0mph /  12.9km/h 8.0mph /  12.9km/h 39% 0.00in /  0mm
16:57 81.4 °F /  27.4 °C 55.4 °F /  13 °C 30.07in /  1018.2hPa ESE 3.5mph /  5.6km/h 3.5mph /  5.6km/h 41% 0.00in /  0mm
17:02 81.4 °F /  27.4 °C 54.1 °F /  12.3 °C 30.07in /  1018.2hPa SE 5.8mph /  9.3km/h 5.8mph /  9.3km/h 39% 0.00in /  0mm
17:07 80.8 °F /  27.1 °C 53.5 °F /  11.9 °C 30.07in /  1018.2hPa SSW 6.9mph /  11.1km/h 6.9mph /  11.1km/h 39% 0.00in /  0mm
17:12 79.9 °F /  26.6 °C 53.4 °F /  11.9 °C 30.07in /  1018.2hPa WSW 3.5mph /  5.6km/h 3.5mph /  5.6km/h 40% 0.00in /  0mm
17:17 79.6 °F /  26.4 °C 53.8 °F /  12.1 °C 30.07in /  1018.2hPa South 3.5mph /  5.6km/h 3.5mph /  5.6km/h 41% 0.00in /  0mm
17:22 79.4 °F /  26.3 °C 53.0 °F /  11.7 °C 30.06in /  1017.8hPa SSE 6.9mph /  11.1km/h 6.9mph /  11.1km/h 40% 0.00in /  0mm
17:27 79.3 °F /  26.3 °C 53.6 °F /  12 °C 30.06in /  1017.8hPa SSW 5.8mph /  9.3km/h 5.8mph /  9.3km/h 41% 0.00in /  0mm
17:32 78.9 °F /  26.1 °C 52.5 °F /  11.4 °C 30.06in /  1017.8hPa SSE 4.6mph /  7.4km/h 4.6mph /  7.4km/h 40% 0.00in /  0mm
17:37 78.8 °F /  26 °C 53.8 °F /  12.1 °C 30.06in /  1017.8hPa South 4.0mph /  6.4km/h 4.0mph /  6.4km/h 42% 0.00in /  0mm
17:42 79.3 °F /  26.3 °C 53.6 °F /  12 °C 30.06in /  1017.8hPa South 3.0mph /  4.8km/h 3.0mph /  4.8km/h 41% 0.00in /  0mm
17:47 79.6 °F /  26.4 °C 52.5 °F /  11.4 °C 30.07in /  1018.2hPa SSE 4.6mph /  7.4km/h 4.6mph /  7.4km/h 39% 0.00in /  0mm
17:52 80.0 °F /  26.7 °C 52.8 °F /  11.6 °C 30.07in /  1018.2hPa SSW 3.0mph /  4.8km/h 3.0mph /  4.8km/h 39% 0.00in /  0mm
17:57 80.2 °F /  26.8 °C 52.3 °F /  11.3 °C 30.07in /  1018.2hPa SSW 3.5mph /  5.6km/h 3.5mph /  5.6km/h 38% 0.00in /  0mm
18:02 80.4 °F /  26.9 °C 51.7 °F /  10.9 °C 30.06in /  1017.8hPa SSW 3.5mph /  5.6km/h 3.5mph /  5.6km/h 37% 0.00in /  0mm
18:07 80.8 °F /  27.1 °C 52.1 °F /  11.2 °C 30.07in /  1018.2hPa SSE 3.5mph /  5.6km/h 3.5mph /  5.6km/h 37% 0.00in /  0mm
18:12 81.0 °F /  27.2 °C 52.3 °F /  11.3 °C 30.07in /  1018.2hPa SSE 3.5mph /  5.6km/h 3.5mph /  5.6km/h 37% 0.00in /  0mm
18:17 80.5 °F /  26.9 °C 51.8 °F /  11 °C 30.07in /  1018.2hPa South 3.5mph /  5.6km/h 3.5mph /  5.6km/h 37% 0.00in /  0mm
18:22 80.2 °F /  26.8 °C 52.3 °F /  11.3 °C 30.07in /  1018.2hPa SSE 1.2mph /  1.9km/h 1.2mph /  1.9km/h 38% 0.00in /  0mm
18:27 79.6 °F /  26.4 °C 51.0 °F /  10.6 °C 30.07in /  1018.2hPa SSE 2.3mph /  3.7km/h 2.3mph /  3.7km/h 37% 0.00in /  0mm
18:32 79.0 °F /  26.1 °C 51.9 °F /  11.1 °C 30.07in /  1018.2hPa South 2.3mph /  3.7km/h 2.3mph /  3.7km/h 39% 0.00in /  0mm
18:37 78.4 °F /  25.8 °C 52.1 °F /  11.2 °C 30.07in /  1018.2hPa South 3.5mph /  5.6km/h 3.5mph /  5.6km/h 40% 0.00in /  0mm
18:42 78.0 °F /  25.6 °C 52.4 °F /  11.3 °C 30.07in /  1018.2hPa South 3.5mph /  5.6km/h 3.5mph /  5.6km/h 41% 0.00in /  0mm
18:47 77.5 °F /  25.3 °C 51.9 °F /  11.1 °C 30.07in /  1018.2hPa South 3.5mph /  5.6km/h 3.5mph /  5.6km/h 41% 0.00in /  0mm
18:52 77.3 °F /  25.2 °C 52.4 °F /  11.3 °C 30.07in /  1018.2hPa SSE 2.3mph /  3.7km/h 2.3mph /  3.7km/h 42% 0.00in /  0mm
18:57 77.1 °F /  25.1 °C 52.2 °F /  11.2 °C 30.08in /  1018.5hPa SSE 1.2mph /  1.9km/h 1.2mph /  1.9km/h 42% 0.00in /  0mm
19:02 76.8 °F /  24.9 °C 52.0 °F /  11.1 °C 30.08in /  1018.5hPa SSE 3.5mph /  5.6km/h 3.5mph /  5.6km/h 42% 0.00in /  0mm
19:07 76.4 °F /  24.7 °C 52.2 °F /  11.2 °C 30.08in /  1018.5hPa SSE 3.5mph /  5.6km/h 3.5mph /  5.6km/h 43% 0.00in /  0mm
19:12 76.1 °F /  24.5 °C 53.2 °F /  11.8 °C 30.08in /  1018.5hPa SSE 4.6mph /  7.4km/h 4.6mph /  7.4km/h 45% 0.00in /  0mm
19:17 75.8 °F /  24.3 °C 53.5 °F /  11.9 °C 30.08in /  1018.5hPa SSE 1.2mph /  1.9km/h 1.2mph /  1.9km/h 46% 0.00in /  0mm
19:22 75.4 °F /  24.1 °C 53.2 °F /  11.8 °C 30.08in /  1018.5hPa SSE 2.3mph /  3.7km/h 2.3mph /  3.7km/h 46% 0.00in /  0mm
19:27 75.0 °F /  23.9 °C 54.0 °F /  12.2 °C 30.08in /  1018.5hPa SSE 2.3mph /  3.7km/h 2.3mph /  3.7km/h 48% 0.00in /  0mm
19:32 74.6 °F /  23.7 °C 53.6 °F /  12 °C 30.08in /  1018.5hPa SW 1.2mph /  1.9km/h 1.2mph /  1.9km/h 48% 0.00in /  0mm
19:37 74.2 °F /  23.4 °C 54.4 °F /  12.4 °C 30.09in /  1018.8hPa SW 2.3mph /  3.7km/h 2.3mph /  3.7km/h 50% 0.00in /  0mm
19:42 73.7 °F /  23.2 °C 55.0 °F /  12.8 °C 30.09in /  1018.8hPa South 3.5mph /  5.6km/h 3.5mph /  5.6km/h 52% 0.00in /  0mm
19:47 73.5 °F /  23.1 °C 54.8 °F /  12.7 °C 30.09in /  1018.8hPa SSW 3.5mph /  5.6km/h 3.5mph /  5.6km/h 52% 0.00in /  0mm
19:52 73.2 °F /  22.9 °C 55.0 °F /  12.8 °C 30.09in /  1018.8hPa South 3.5mph /  5.6km/h 3.5mph /  5.6km/h 53% 0.00in /  0mm
19:57 72.9 °F /  22.7 °C 54.8 °F /  12.7 °C 30.09in /  1018.8hPa South 3.5mph /  5.6km/h 3.5mph /  5.6km/h 53% 0.00in /  0mm
20:02 72.6 °F /  22.6 °C 55.0 °F /  12.8 °C 30.09in /  1018.8hPa SSW 1.2mph /  1.9km/h   54% 0.00in /  0mm
20:07 72.2 °F /  22.3 °C 54.6 °F /  12.6 °C 30.09in /  1018.8hPa SSW 1.2mph /  1.9km/h   54% 0.00in /  0mm
20:12 71.8 °F /  22.1 °C 55.3 °F /  12.9 °C 30.09in /  1018.8hPa SSW 1.2mph /  1.9km/h 1.2mph /  1.9km/h 56% 0.00in /  0mm
20:17 71.2 °F /  21.8 °C 56.1 °F /  13.4 °C 30.10in /  1019.2hPa SSW 1.2mph /  1.9km/h 1.2mph /  1.9km/h 59% 0.00in /  0mm
20:22 70.6 °F /  21.4 °C 56.5 °F /  13.6 °C 30.10in /  1019.2hPa Calm     61% 0.00in /  0mm
20:27 70.0 °F /  21.1 °C 55.9 °F /  13.3 °C 30.11in /  1019.5hPa North 3.5mph /  5.6km/h 3.5mph /  5.6km/h 61% 0.00in /  0mm
20:32 69.7 °F /  20.9 °C 56.1 °F /  13.4 °C 30.11in /  1019.5hPa NNE 2.3mph /  3.7km/h 2.3mph /  3.7km/h 62% 0.00in /  0mm
20:38 69.7 °F /  20.9 °C 56.1 °F /  13.4 °C 30.11in /  1019.5hPa NNE 3.5mph /  5.6km/h 3.5mph /  5.6km/h 62% 0.00in /  0mm
20:43 69.8 °F /  21 °C 56.6 °F /  13.7 °C 30.12in /  1019.9hPa NNE 10.4mph /  16.7km/h 10.4mph /  16.7km/h 63% 0.00in /  0mm
20:48 69.3 °F /  20.7 °C 57.0 °F /  13.9 °C 30.13in /  1020.2hPa North 6.9mph /  11.1km/h 6.9mph /  11.1km/h 65% 0.00in /  0mm
20:53 68.1 °F /  20.1 °C 57.9 °F /  14.4 °C 30.13in /  1020.2hPa WNW 3.5mph /  5.6km/h 3.5mph /  5.6km/h 70% 0.00in /  0mm
20:58 66.3 °F /  19.1 °C 59.2 °F /  15.1 °C 30.14in /  1020.5hPa WNW 6.9mph /  11.1km/h 6.9mph /  11.1km/h 78% 0.02in /  0.5mm
21:03 64.9 °F /  18.3 °C 59.3 °F /  15.2 °C 30.14in /  1020.5hPa WNW 3.5mph /  5.6km/h 3.5mph /  5.6km/h 82% 0.04in /  1mm
21:08 64.1 °F /  17.8 °C 59.5 °F /  15.3 °C 30.14in /  1020.5hPa Calm     85% 0.06in /  1.5mm
21:13 63.5 °F /  17.5 °C 59.6 °F /  15.3 °C 30.14in /  1020.5hPa SSW 1.2mph /  1.9km/h 1.2mph /  1.9km/h 87% 0.07in /  1.8mm
21:18 63.0 °F /  17.2 °C 59.4 °F /  15.2 °C 30.14in /  1020.5hPa WSW 2.0mph /  3.2km/h 2.0mph /  3.2km/h 88% 0.07in /  1.8mm
21:23 62.7 °F /  17.1 °C 59.7 °F /  15.4 °C 30.15in /  1020.9hPa ENE 2.0mph /  3.2km/h 2.0mph /  3.2km/h 90% 0.07in /  1.8mm
21:28 62.5 °F /  16.9 °C 59.8 °F /  15.4 °C 30.16in /  1021.2hPa NE 2.3mph /  3.7km/h 2.3mph /  3.7km/h 91% 0.07in /  1.8mm
21:33 62.2 °F /  16.8 °C 59.5 °F /  15.3 °C 30.16in /  1021.2hPa East 1.2mph /  1.9km/h 1.2mph /  1.9km/h 91% 0.07in /  1.8mm
21:38 62.2 °F /  16.8 °C 59.5 °F /  15.3 °C 30.16in /  1021.2hPa ESE 1.2mph /  1.9km/h 1.2mph /  1.9km/h 91% 0.07in /  1.8mm
21:43 62.3 °F /  16.8 °C 59.6 °F /  15.3 °C 30.17in /  1021.6hPa SE 1.2mph /  1.9km/h 1.2mph /  1.9km/h 91% 0.07in /  1.8mm
21:48 62.2 °F /  16.8 °C 59.5 °F /  15.3 °C 30.16in /  1021.2hPa Calm     91% 0.07in /  1.8mm
21:53 62.2 °F /  16.8 °C 59.5 °F /  15.3 °C 30.17in /  1021.6hPa SE 1.2mph /  1.9km/h 1.2mph /  1.9km/h 91% 0.07in /  1.8mm
21:58 62.0 °F /  16.7 °C 59.6 °F /  15.3 °C 30.17in /  1021.6hPa ESE 3.5mph /  5.6km/h 3.5mph /  5.6km/h 92% 0.05in /  1.3mm
22:03 62.3 °F /  16.8 °C 59.6 °F /  15.3 °C 30.17in /  1021.6hPa East 2.3mph /  3.7km/h 2.3mph /  3.7km/h 91% 0.03in /  0.8mm
22:08 62.7 °F /  17.1 °C 59.7 °F /  15.4 °C 30.17in /  1021.6hPa ESE 2.3mph /  3.7km/h 2.3mph /  3.7km/h 90% 0.00in /  0mm
22:13 62.7 °F /  17.1 °C 59.7 °F /  15.4 °C 30.17in /  1021.6hPa ESE 2.3mph /  3.7km/h 2.3mph /  3.7km/h 90% 0.00in /  0mm
22:18 62.8 °F /  17.1 °C 59.8 °F /  15.4 °C 30.17in /  1021.6hPa Calm     90% 0.00in /  0mm
22:23 63.2 °F /  17.3 °C 58.9 °F /  14.9 °C 30.17in /  1021.6hPa ESE 4.6mph /  7.4km/h 4.6mph /  7.4km/h 86% 0.00in /  0mm
22:28 63.5 °F /  17.5 °C 58.9 °F /  14.9 °C 30.17in /  1021.6hPa SE 2.3mph /  3.7km/h 2.3mph /  3.7km/h 85% 0.00in /  0mm
22:33 63.6 °F /  17.6 °C 58.7 °F /  14.8 °C 30.17in /  1021.6hPa ESE 2.3mph /  3.7km/h 2.3mph /  3.7km/h 84% 0.00in /  0mm
22:38 63.5 °F /  17.5 °C 58.6 °F /  14.8 °C 30.17in /  1021.6hPa East 3.5mph /  5.6km/h 3.5mph /  5.6km/h 84% 0.00in /  0mm
22:43 63.9 °F /  17.7 °C 58.3 °F /  14.6 °C 30.17in /  1021.6hPa SSE 3.5mph /  5.6km/h 3.5mph /  5.6km/h 82% 0.00in /  0mm
22:48 64.7 °F /  18.2 °C 58.7 °F /  14.8 °C 30.17in /  1021.6hPa SSE 4.6mph /  7.4km/h 4.6mph /  7.4km/h 81% 0.00in /  0mm
22:53 64.9 °F /  18.3 °C 58.6 °F /  14.8 °C 30.18in /  1021.9hPa SE 3.5mph /  5.6km/h 3.5mph /  5.6km/h 80% 0.00in /  0mm
22:58 64.9 °F /  18.3 °C 58.6 °F /  14.8 °C 30.18in /  1021.9hPa ESE 3.5mph /  5.6km/h 3.5mph /  5.6km/h 80% 0.00in /  0mm
23:03 64.7 °F /  18.2 °C 58.4 °F /  14.7 °C 30.18in /  1021.9hPa NE 2.3mph /  3.7km/h 2.3mph /  3.7km/h 80% 0.00in /  0mm
23:08 64.1 °F /  17.8 °C 58.1 °F /  14.5 °C 30.18in /  1021.9hPa NNE 2.0mph /  3.2km/h 2.0mph /  3.2km/h 81% 0.00in /  0mm
23:13 63.8 °F /  17.7 °C 58.2 °F /  14.6 °C 30.18in /  1021.9hPa NNE 3.5mph /  5.6km/h 3.5mph /  5.6km/h 82% 0.00in /  0mm
23:18 63.2 °F /  17.3 °C 58.3 °F /  14.6 °C 30.19in /  1022.2hPa WNW 2.3mph /  3.7km/h 2.3mph /  3.7km/h 84% 0.00in /  0mm
23:23 62.8 °F /  17.1 °C 58.2 °F /  14.6 °C 30.18in /  1021.9hPa NNW 1.2mph /  1.9km/h 1.2mph /  1.9km/h 85% 0.00in /  0mm
23:28 62.6 °F /  17 °C 58.0 °F /  14.4 °C 30.18in /  1021.9hPa NNE 1.2mph /  1.9km/h 1.2mph /  1.9km/h 85% 0.00in /  0mm
23:33 62.3 °F /  16.8 °C 58.1 °F /  14.5 °C 30.18in /  1021.9hPa ENE 1.2mph /  1.9km/h 1.2mph /  1.9km/h 86% 0.00in /  0mm
23:38 62.1 °F /  16.7 °C 58.2 °F /  14.6 °C 30.19in /  1022.2hPa North 2.3mph /  3.7km/h 2.3mph /  3.7km/h 87% 0.00in /  0mm
23:43 61.8 °F /  16.6 °C 57.9 °F /  14.4 °C 30.19in /  1022.2hPa NW 2.3mph /  3.7km/h 2.3mph /  3.7km/h 87% 0.00in /  0mm
23:48 61.6 °F /  16.4 °C 58.0 °F /  14.4 °C 30.19in /  1022.2hPa Calm     88% 0.00in /  0mm
23:53 61.3 °F /  16.3 °C 57.7 °F /  14.3 °C 30.19in /  1022.2hPa Calm     88% 0.00in /  0mm
23:58 61.1 °F /  16.2 °C 57.8 °F /  14.3 °C 30.18in /  1021.9hPa Calm     89% 0.00in /  0mm
Smyth Weather
Compliments of Weather Underground